createdAt,value
2023-04-29T00:01:14.170Z,99010.00
2023-04-29T00:03:42.697Z,98928.00
2023-04-29T00:06:14.635Z,98987.00
2023-04-29T00:08:43.595Z,98887.00
2023-04-29T00:11:12.289Z,98989.00
2023-04-29T00:13:42.191Z,98915.00
2023-04-29T00:16:11.459Z,98897.00
2023-04-29T00:18:39.801Z,98890.00
2023-04-29T00:21:08.610Z,98902.00
2023-04-29T00:23:37.197Z,98893.00
2023-04-29T00:26:05.773Z,98914.00
2023-04-29T00:28:34.575Z,98874.00
2023-04-29T00:31:04.457Z,98917.00
2023-04-29T00:33:33.302Z,98851.00
2023-04-29T00:36:02.189Z,98939.00
2023-04-29T00:38:30.758Z,98897.00
2023-04-29T00:40:59.078Z,98933.00
2023-04-29T00:43:27.475Z,98923.00
2023-04-29T00:45:56.048Z,98945.00
2023-04-29T00:48:25.660Z,98926.00
2023-04-29T00:50:54.466Z,98947.00
2023-04-29T00:53:23.788Z,98900.00
2023-04-29T00:55:53.518Z,98910.00
2023-04-29T00:58:22.889Z,98876.00
2023-04-29T01:00:53.426Z,98846.00
2023-04-29T01:03:37.842Z,98957.00
2023-04-29T01:09:30.586Z,98925.00
2023-04-29T01:12:14.655Z,98958.00
2023-04-29T01:14:55.364Z,98971.00
2023-04-29T01:17:32.288Z,98947.00
2023-04-29T01:20:04.194Z,98951.00
2023-04-29T01:26:47.170Z,98869.00
2023-04-29T01:29:54.948Z,98988.00
2023-04-29T01:32:38.772Z,98956.00
2023-04-29T01:35:23.611Z,98964.00
2023-04-29T01:38:03.235Z,98914.00
2023-04-29T01:40:44.720Z,98949.00
2023-04-29T01:43:24.959Z,98942.00
2023-04-29T01:45:57.444Z,98913.00
2023-04-29T01:48:26.947Z,98933.00
2023-04-29T01:50:55.443Z,98955.00
2023-04-29T01:53:23.817Z,98931.00
2023-04-29T01:55:52.542Z,98971.00
2023-04-29T01:58:25.945Z,98911.00
2023-04-29T02:01:26.822Z,98896.00
2023-04-29T02:03:55.774Z,98947.00
2023-04-29T02:06:24.737Z,99028.00
2023-04-29T02:08:58.007Z,98992.00
2023-04-29T02:11:26.769Z,98913.00
2023-04-29T02:13:59.090Z,98872.00
2023-04-29T02:16:27.663Z,98921.00
2023-04-29T02:19:05.589Z,98948.00
2023-04-29T02:21:35.341Z,98929.00
2023-04-29T02:24:03.976Z,98945.00
2023-04-29T02:26:32.558Z,98953.00
2023-04-29T02:29:03.776Z,98957.00
2023-04-29T02:31:32.671Z,98934.00
2023-04-29T02:34:01.188Z,98943.00
2023-04-29T02:36:29.577Z,98945.00
2023-04-29T02:38:57.750Z,98897.00
2023-04-29T02:41:26.232Z,98967.00
2023-04-29T02:43:54.398Z,98947.00
2023-04-29T02:46:24.364Z,98908.00
2023-04-29T02:48:53.016Z,98942.00
2023-04-29T02:51:21.223Z,98952.00
2023-04-29T02:53:49.978Z,99005.00
2023-04-29T02:56:18.173Z,98963.00
2023-04-29T02:58:46.555Z,98958.00
2023-04-29T03:01:14.741Z,98931.00
2023-04-29T03:03:44.684Z,98962.00
2023-04-29T03:06:13.139Z,98996.00
2023-04-29T03:08:41.438Z,98973.00
2023-04-29T03:11:09.609Z,98924.00
2023-04-29T03:13:38.685Z,98962.00
2023-04-29T03:16:09.040Z,98934.00
2023-04-29T03:18:37.642Z,98968.00
2023-04-29T03:21:07.806Z,98982.00
2023-04-29T03:23:36.115Z,98948.00
2023-04-29T03:26:06.150Z,98947.00
2023-04-29T03:28:34.485Z,98946.00
2023-04-29T03:31:03.087Z,98907.00
2023-04-29T03:33:32.579Z,98949.00
2023-04-29T03:36:01.018Z,98953.00
2023-04-29T03:38:38.755Z,98913.00
2023-04-29T03:41:07.299Z,98915.00
2023-04-29T03:43:35.942Z,98989.00
2023-04-29T03:46:04.246Z,98929.00
2023-04-29T03:48:33.035Z,98923.00
2023-04-29T03:51:02.158Z,98958.00
2023-04-29T03:53:30.861Z,98936.00
2023-04-29T03:56:00.811Z,98967.00
2023-04-29T03:58:29.423Z,98970.00
2023-04-29T04:00:58.309Z,98891.00
2023-04-29T04:03:34.636Z,98974.00
2023-04-29T04:06:03.174Z,98940.00
2023-04-29T04:08:31.832Z,98962.00
2023-04-29T04:11:09.966Z,98969.00
2023-04-29T04:13:44.529Z,98907.00
2023-04-29T04:16:13.410Z,98903.00
2023-04-29T04:18:42.746Z,98954.00
2023-04-29T04:21:42.336Z,98986.00
2023-04-29T04:24:16.359Z,98851.00
2023-04-29T04:26:53.580Z,98859.00
2023-04-29T04:29:31.473Z,98901.00
2023-04-29T04:32:03.869Z,98903.00
2023-04-29T04:34:33.506Z,98945.00
2023-04-29T04:37:03.336Z,98914.00
2023-04-29T04:39:32.616Z,98969.00
2023-04-29T04:42:03.838Z,98955.00
2023-04-29T04:44:34.403Z,98946.00
2023-04-29T04:47:11.877Z,98906.00
2023-04-29T04:50:04.410Z,98967.00
2023-04-29T04:52:32.771Z,98930.00
2023-04-29T04:55:13.860Z,98976.00
2023-04-29T04:57:47.299Z,98996.00
2023-04-29T05:00:16.656Z,98979.00
2023-04-29T05:02:47.485Z,98937.00
2023-04-29T05:05:16.040Z,98991.00
2023-04-29T05:07:45.151Z,99002.00
2023-04-29T05:10:16.662Z,98948.00
2023-04-29T05:12:51.107Z,98964.00
2023-04-29T05:15:27.442Z,98980.00
2023-04-29T05:18:36.300Z,99033.00
2023-04-29T05:21:06.612Z,99022.00
2023-04-29T05:23:39.639Z,99032.00
2023-04-29T05:26:11.009Z,98930.00
2023-04-29T05:28:46.758Z,99009.00
2023-04-29T05:31:15.816Z,99005.00
2023-04-29T05:33:44.235Z,98966.00
2023-04-29T05:36:12.697Z,98976.00
2023-04-29T05:38:41.004Z,98989.00
2023-04-29T05:41:10.486Z,99027.00
2023-04-29T05:43:51.702Z,99009.00
2023-04-29T05:46:20.565Z,98984.00
2023-04-29T05:48:50.055Z,99027.00
2023-04-29T05:51:19.218Z,99053.00
2023-04-29T05:53:47.645Z,98958.00
2023-04-29T05:56:16.839Z,98963.00
2023-04-29T05:58:45.187Z,99023.00
2023-04-29T06:01:14.695Z,98928.00
2023-04-29T06:03:43.112Z,99035.00
2023-04-29T06:06:28.725Z,99019.00
2023-04-29T06:09:27.661Z,99029.00
2023-04-29T06:12:03.073Z,99024.00
2023-04-29T06:14:33.635Z,98983.00
2023-04-29T06:17:03.830Z,99048.00
2023-04-29T06:19:33.630Z,99047.00
2023-04-29T06:22:01.764Z,99038.00
2023-04-29T06:24:31.306Z,99042.00
2023-04-29T06:26:59.651Z,99075.00
2023-04-29T06:29:28.469Z,99019.00
2023-04-29T06:31:57.125Z,99051.00
2023-04-29T06:34:27.085Z,99053.00
2023-04-29T06:37:14.105Z,99072.00
2023-04-29T06:39:55.056Z,99067.00
2023-04-29T06:42:42.097Z,99052.00
2023-04-29T06:45:47.825Z,99067.00
2023-04-29T06:48:22.508Z,99061.00
2023-04-29T06:50:53.937Z,99075.00
2023-04-29T06:53:22.818Z,99060.00
2023-04-29T06:55:51.896Z,99089.00
2023-04-29T06:58:21.769Z,99068.00
2023-04-29T07:00:52.371Z,99104.00
2023-04-29T07:03:21.045Z,99066.00
2023-04-29T07:05:49.238Z,99069.00
2023-04-29T07:08:18.793Z,99043.00
2023-04-29T07:10:56.022Z,99043.00
2023-04-29T07:13:25.253Z,99043.00
2023-04-29T07:15:53.612Z,99074.00
2023-04-29T07:18:21.884Z,99050.00
2023-04-29T07:20:52.148Z,99070.00
2023-04-29T07:23:22.816Z,99109.00
2023-04-29T07:25:51.468Z,99067.00
2023-04-29T07:28:23.131Z,99088.00
2023-04-29T07:30:54.237Z,99134.00
2023-04-29T07:33:22.426Z,99079.00
2023-04-29T07:35:50.676Z,99097.00
2023-04-29T07:38:19.339Z,99120.00
2023-04-29T07:40:51.952Z,99088.00
2023-04-29T07:43:24.904Z,99090.00
2023-04-29T07:45:53.493Z,99117.00
2023-04-29T07:48:22.495Z,99094.00
2023-04-29T07:50:50.867Z,99100.00
2023-04-29T07:53:19.363Z,99053.00
2023-04-29T07:55:49.283Z,99073.00
2023-04-29T07:58:19.086Z,99115.00
2023-04-29T08:00:51.840Z,99067.00
2023-04-29T08:03:21.138Z,99100.00
2023-04-29T08:05:51.621Z,99118.00
2023-04-29T08:08:23.393Z,99138.00
2023-04-29T08:10:54.914Z,99091.00
2023-04-29T08:13:23.374Z,99132.00
2023-04-29T08:15:53.139Z,99166.00
2023-04-29T08:18:25.557Z,99088.00
2023-04-29T08:20:54.358Z,99112.00
2023-04-29T08:23:23.074Z,99118.00
2023-04-29T08:25:52.393Z,99159.00
2023-04-29T08:28:24.823Z,99182.00
2023-04-29T08:30:53.173Z,99119.00
2023-04-29T08:33:21.441Z,99153.00
2023-04-29T08:35:49.956Z,99202.00
2023-04-29T08:38:18.845Z,99180.00
2023-04-29T08:40:48.269Z,99167.00
2023-04-29T08:43:17.989Z,99184.00
2023-04-29T08:45:49.941Z,99155.00
2023-04-29T08:48:19.342Z,99222.00
2023-04-29T08:50:47.902Z,99190.00
2023-04-29T08:53:16.754Z,99096.00
2023-04-29T08:55:48.654Z,99191.00
2023-04-29T08:58:18.147Z,99138.00
2023-04-29T09:00:48.729Z,99178.00
2023-04-29T09:03:28.870Z,99158.00
2023-04-29T09:06:06.789Z,99235.00
2023-04-29T09:08:39.700Z,99145.00
2023-04-29T09:11:15.602Z,99092.00
2023-04-29T09:13:44.925Z,99174.00
2023-04-29T09:16:18.243Z,99124.00
2023-04-29T09:18:49.206Z,99234.00
2023-04-29T09:21:22.356Z,99185.00
2023-04-29T09:23:53.238Z,99213.00
2023-04-29T09:26:26.889Z,99198.00
2023-04-29T09:29:13.997Z,99213.00
2023-04-29T09:31:45.494Z,99219.00
2023-04-29T09:34:15.384Z,99219.00
2023-04-29T09:36:46.560Z,99171.00
2023-04-29T09:39:17.774Z,99141.00
2023-04-29T09:42:03.167Z,99236.00
2023-04-29T09:44:35.840Z,99242.00
2023-04-29T09:47:08.566Z,99235.00
2023-04-29T09:49:41.190Z,99240.00
2023-04-29T09:52:11.776Z,99257.00
2023-04-29T09:54:42.310Z,99218.00
2023-04-29T09:57:12.844Z,99215.00
2023-04-29T09:59:43.676Z,99255.00
2023-04-29T10:02:18.199Z,99279.00
2023-04-29T10:04:48.870Z,99272.00
2023-04-29T10:07:19.162Z,99273.00
2023-04-29T10:09:49.602Z,99263.00
2023-04-29T10:12:20.338Z,99246.00
2023-04-29T10:14:59.156Z,99288.00
2023-04-29T10:17:53.620Z,99211.00
2023-04-29T10:20:29.083Z,99211.00
2023-04-29T10:22:59.537Z,99281.00
2023-04-29T10:25:29.334Z,99252.00
2023-04-29T10:28:01.766Z,99239.00
2023-04-29T10:30:30.837Z,99257.00
2023-04-29T10:33:06.638Z,99248.00
2023-04-29T10:35:36.335Z,99305.00
2023-04-29T10:38:21.206Z,99269.00
2023-04-29T10:40:57.578Z,99289.00
2023-04-29T10:43:27.805Z,99241.00
2023-04-29T10:46:21.774Z,99289.00
2023-04-29T10:49:02.118Z,99293.00
2023-04-29T10:51:34.234Z,99280.00
2023-04-29T10:54:12.386Z,99326.00
2023-04-29T10:56:44.848Z,99335.00
2023-04-29T10:59:16.440Z,99306.00
2023-04-29T11:01:50.481Z,99321.00
2023-04-29T11:04:22.214Z,99323.00
2023-04-29T11:06:58.240Z,99309.00
2023-04-29T11:09:28.619Z,99326.00
2023-04-29T11:12:05.664Z,99332.00
2023-04-29T11:14:39.041Z,99321.00
2023-04-29T11:17:11.974Z,99292.00
2023-04-29T11:19:46.716Z,99343.00
2023-04-29T11:22:30.472Z,99278.00
2023-04-29T11:25:01.471Z,99275.00
2023-04-29T11:27:33.454Z,99313.00
2023-04-29T11:30:05.495Z,99330.00
2023-04-29T11:32:51.625Z,99341.00
2023-04-29T11:35:23.286Z,99389.00
2023-04-29T11:38:39.438Z,99299.00
2023-04-29T11:41:25.951Z,99370.00
2023-04-29T11:44:03.589Z,99342.00
2023-04-29T11:46:38.153Z,99403.00
2023-04-29T11:49:09.943Z,99307.00
2023-04-29T11:51:49.238Z,99328.00
2023-04-29T11:54:20.220Z,99277.00
2023-04-29T11:56:54.587Z,99406.00
2023-04-29T11:59:29.453Z,99333.00
2023-04-29T12:02:02.765Z,99323.00
2023-04-29T12:05:26.802Z,99275.00
2023-04-29T12:08:09.620Z,99397.00
2023-04-29T12:11:14.506Z,99444.00
2023-04-29T12:13:43.905Z,99407.00
2023-04-29T12:16:14.635Z,99454.00
2023-04-29T12:18:47.837Z,99411.00
2023-04-29T12:21:24.256Z,99415.00
2023-04-29T12:23:54.851Z,99433.00
2023-04-29T12:26:30.672Z,99365.00
2023-04-29T12:29:27.788Z,99416.00
2023-04-29T12:32:14.476Z,99345.00
2023-04-29T12:34:53.476Z,99458.00
2023-04-29T12:37:28.419Z,99343.00
2023-04-29T12:40:35.054Z,99391.00
2023-04-29T12:43:15.641Z,99408.00
2023-04-29T12:45:47.910Z,99452.00
2023-04-29T12:48:29.171Z,99380.00
2023-04-29T12:51:18.512Z,99468.00
2023-04-29T12:53:49.035Z,99427.00
2023-04-29T12:56:22.844Z,99441.00
2023-04-29T12:58:53.492Z,99413.00
2023-04-29T13:01:30.830Z,99450.00
2023-04-29T13:04:02.883Z,99432.00
2023-04-29T13:06:41.129Z,99426.00
2023-04-29T13:09:20.256Z,99464.00
2023-04-29T13:12:12.662Z,99397.00
2023-04-29T13:14:45.718Z,99424.00
2023-04-29T13:17:20.169Z,99500.00
2023-04-29T13:19:51.914Z,99492.00
2023-04-29T13:22:21.802Z,99468.00
2023-04-29T13:24:55.754Z,99413.00
2023-04-29T13:27:26.016Z,99497.00
2023-04-29T13:29:54.776Z,99468.00
2023-04-29T13:33:32.824Z,99337.00
2023-04-29T13:36:51.636Z,99359.00
2023-04-29T13:39:22.913Z,99475.00
2023-04-29T13:41:51.501Z,99492.00
2023-04-29T13:44:29.629Z,99477.00
2023-04-29T13:47:01.990Z,99477.00
2023-04-29T13:50:21.362Z,99474.00
2023-04-29T13:55:13.824Z,99484.00
2023-04-29T14:00:31.564Z,99475.00
2023-04-29T14:05:29.397Z,99476.00
2023-04-29T14:07:57.361Z,99482.00
2023-04-29T14:10:25.207Z,99490.00
2023-04-29T14:12:53.058Z,99485.00
2023-04-29T14:15:22.459Z,99494.00
2023-04-29T14:17:51.399Z,99492.00
2023-04-29T14:20:19.347Z,99490.00
2023-04-29T14:22:47.234Z,99496.00
2023-04-29T14:25:15.199Z,99503.00
2023-04-29T14:27:43.066Z,99505.00
2023-04-29T14:30:12.172Z,99510.00
2023-04-29T14:32:41.407Z,99513.00
2023-04-29T14:35:10.466Z,99513.00
2023-04-29T14:37:38.356Z,99515.00
2023-04-29T14:40:09.271Z,99520.00
2023-04-29T14:42:37.127Z,99515.00
2023-04-29T14:45:06.807Z,99511.00
2023-04-29T14:47:34.950Z,99519.00
2023-04-29T14:50:04.789Z,99519.00
2023-04-29T14:52:32.635Z,99528.00
2023-04-29T14:55:00.788Z,99521.00
2023-04-29T14:57:29.930Z,99520.00
2023-04-29T14:59:57.804Z,99523.00
2023-04-29T15:02:25.616Z,99530.00
2023-04-29T15:04:53.616Z,99526.00
2023-04-29T15:07:23.132Z,99530.00
2023-04-29T15:09:51.458Z,99533.00
2023-04-29T15:12:20.997Z,99516.00
2023-04-29T15:14:48.867Z,99529.00
2023-04-29T15:17:16.726Z,99535.00
2023-04-29T15:19:44.576Z,99523.00
2023-04-29T15:22:12.830Z,99536.00
2023-04-29T15:24:42.016Z,99543.00
2023-04-29T15:27:09.957Z,99545.00
2023-04-29T15:29:38.410Z,99551.00
2023-04-29T15:32:07.416Z,99550.00
2023-04-29T15:34:35.621Z,99543.00
2023-04-29T15:37:03.457Z,99552.00
2023-04-29T15:39:31.574Z,99562.00
2023-04-29T15:42:01.843Z,99562.00
2023-04-29T15:44:30.139Z,99562.00
2023-04-29T15:46:58.206Z,99556.00
2023-04-29T15:49:26.100Z,99561.00
2023-04-29T15:51:53.934Z,99560.00
2023-04-29T15:54:23.076Z,99565.00
2023-04-29T15:56:51.042Z,99567.00
2023-04-29T15:59:20.294Z,99577.00
2023-04-29T16:01:48.238Z,99573.00
2023-04-29T16:04:16.537Z,99577.00
2023-04-29T16:06:45.344Z,99578.00
2023-04-29T16:09:13.285Z,99576.00
2023-04-29T16:11:41.154Z,99592.00
2023-04-29T16:14:08.976Z,99581.00
2023-04-29T16:16:38.208Z,99580.00
2023-04-29T16:19:06.132Z,99581.00
2023-04-29T16:21:34.606Z,99573.00
2023-04-29T16:24:02.662Z,99574.00
2023-04-29T16:26:30.530Z,99582.00
2023-04-29T16:28:59.177Z,99589.00
2023-04-29T16:31:28.264Z,99585.00
2023-04-29T16:33:58.049Z,99583.00
2023-04-29T16:36:26.285Z,99588.00
2023-04-29T16:38:54.922Z,99588.00
2023-04-29T16:41:23.998Z,99602.00
2023-04-29T16:43:51.844Z,99600.00
2023-04-29T16:46:20.052Z,99605.00
2023-04-29T16:48:51.182Z,99612.00
2023-04-29T16:51:20.767Z,99613.00
2023-04-29T16:53:48.664Z,99616.00
2023-04-29T16:56:16.684Z,99618.00
2023-04-29T16:58:44.649Z,99618.00
2023-04-29T17:01:12.615Z,99622.00
2023-04-29T17:03:40.764Z,99625.00
2023-04-29T17:06:08.921Z,99629.00
2023-04-29T17:08:38.172Z,99629.00
2023-04-29T17:11:06.446Z,99635.00
2023-04-29T17:13:34.417Z,99634.00
2023-04-29T17:16:02.307Z,99630.00
2023-04-29T17:18:30.387Z,99630.00
2023-04-29T17:20:58.317Z,99642.00
2023-04-29T17:23:26.275Z,99640.00
2023-04-29T17:25:56.339Z,99650.00
2023-04-29T17:28:24.391Z,99653.00
2023-04-29T17:30:55.625Z,99648.00
2023-04-29T17:33:32.225Z,99656.00
2023-04-29T17:36:01.313Z,99656.00
2023-04-29T17:38:29.392Z,99661.00
2023-04-29T17:40:58.551Z,99662.00
2023-04-29T17:43:27.199Z,99663.00
2023-04-29T17:45:55.152Z,99678.00
2023-04-29T17:48:23.081Z,99672.00
2023-04-29T17:50:51.077Z,99672.00
2023-04-29T17:53:18.929Z,99684.00
2023-04-29T17:55:47.058Z,99681.00
2023-04-29T17:58:16.362Z,99672.00
2023-04-29T18:00:44.204Z,99681.00
2023-04-29T18:03:12.305Z,99677.00
2023-04-29T18:05:40.161Z,99674.00
2023-04-29T18:08:08.114Z,99676.00
2023-04-29T18:10:36.005Z,99685.00
2023-04-29T18:13:04.186Z,99684.00
2023-04-29T18:15:33.480Z,99690.00
2023-04-29T18:18:01.338Z,99689.00
2023-04-29T18:20:29.185Z,99697.00
2023-04-29T18:22:57.039Z,99698.00
2023-04-29T18:25:24.857Z,99697.00
2023-04-29T18:27:59.710Z,99698.00
2023-04-29T18:30:33.030Z,99706.00
2023-04-29T18:33:01.218Z,99710.00
2023-04-29T18:35:29.477Z,99704.00
2023-04-29T18:37:57.420Z,99706.00
2023-04-29T18:40:25.322Z,99715.00
2023-04-29T18:42:53.267Z,99713.00
2023-04-29T18:45:21.532Z,99714.00
2023-04-29T18:47:51.166Z,99713.00
2023-04-29T18:50:19.265Z,99716.00
2023-04-29T18:52:47.330Z,99720.00
2023-04-29T18:55:15.335Z,99728.00
2023-04-29T18:57:43.425Z,99719.00
2023-04-29T19:00:14.378Z,99733.00
2023-04-29T19:02:42.276Z,99735.00
2023-04-29T19:05:12.896Z,99740.00
2023-04-29T19:07:40.953Z,99744.00
2023-04-29T19:10:10.233Z,99742.00
2023-04-29T19:12:38.609Z,99752.00
2023-04-29T19:15:08.157Z,99751.00
2023-04-29T19:17:36.330Z,99757.00
2023-04-29T19:20:05.867Z,99763.00
2023-04-29T19:22:35.177Z,99760.00
2023-04-29T19:25:03.142Z,99765.00
2023-04-29T19:27:31.054Z,99756.00
2023-04-29T19:29:58.965Z,99764.00
2023-04-29T19:32:28.845Z,99760.00
2023-04-29T19:34:58.018Z,99766.00
2023-04-29T19:37:26.044Z,99767.00
2023-04-29T19:39:55.528Z,99765.00
2023-04-29T19:42:23.763Z,99767.00
2023-04-29T19:44:51.659Z,99778.00
2023-04-29T19:47:19.578Z,99772.00
2023-04-29T19:49:47.477Z,99771.00
2023-04-29T19:52:15.535Z,99777.00
2023-04-29T19:54:43.410Z,99776.00
2023-04-29T19:57:12.631Z,99784.00
2023-04-29T19:59:40.551Z,99784.00
2023-04-29T20:02:09.192Z,99788.00
2023-04-29T20:04:37.230Z,99779.00
2023-04-29T20:07:05.154Z,99784.00
2023-04-29T20:09:33.358Z,99778.00
2023-04-29T20:12:02.662Z,99788.00
2023-04-29T20:14:32.788Z,99788.00
2023-04-29T20:17:00.987Z,99795.00
2023-04-29T20:19:29.031Z,99789.00
2023-04-29T20:21:58.593Z,99792.00
2023-04-29T20:24:26.774Z,99793.00
2023-04-29T20:26:54.656Z,99799.00
2023-04-29T20:29:22.915Z,99781.00
2023-04-29T20:31:52.184Z,99801.00
2023-04-29T20:34:20.084Z,99792.00
2023-04-29T20:36:48.298Z,99796.00
2023-04-29T20:39:18.044Z,99800.00
2023-04-29T20:41:46.859Z,99802.00
2023-04-29T20:44:14.702Z,99805.00
2023-04-29T20:46:42.711Z,99804.00
2023-04-29T20:49:12.696Z,99801.00
2023-04-29T20:51:40.557Z,99801.00
2023-04-29T20:54:08.463Z,99804.00
2023-04-29T20:56:36.303Z,99802.00
2023-04-29T20:59:04.252Z,99805.00
2023-04-29T21:01:32.146Z,99807.00
2023-04-29T21:04:00.060Z,99810.00
2023-04-29T21:06:30.380Z,99809.00
2023-04-29T21:08:59.133Z,99804.00
2023-04-29T21:11:28.113Z,99806.00
2023-04-29T21:13:57.043Z,99807.00
2023-04-29T21:16:26.066Z,99804.00
2023-04-29T21:18:54.083Z,99820.00
2023-04-29T21:21:23.412Z,99808.00
2023-04-29T21:23:52.816Z,99820.00
2023-04-29T21:26:21.470Z,99811.00
2023-04-29T21:28:50.366Z,99818.00
2023-04-29T21:31:18.343Z,99819.00
2023-04-29T21:33:47.588Z,99819.00
2023-04-29T21:36:16.006Z,99824.00
2023-04-29T21:38:44.071Z,99835.00
2023-04-29T21:41:22.497Z,99830.00
2023-04-29T21:43:51.619Z,99830.00
2023-04-29T21:46:21.021Z,99822.00
2023-04-29T21:48:49.114Z,99826.00
2023-04-29T21:51:18.888Z,99834.00
2023-04-29T21:53:46.769Z,99817.00
2023-04-29T21:56:16.046Z,99826.00
2023-04-29T21:58:44.785Z,99834.00
2023-04-29T22:01:26.479Z,99833.00
2023-04-29T22:03:54.660Z,99833.00
2023-04-29T22:06:22.964Z,99837.00
2023-04-29T22:08:51.046Z,99839.00
2023-04-29T22:11:21.817Z,99837.00
2023-04-29T22:13:49.754Z,99837.00
2023-04-29T22:16:18.797Z,99833.00
2023-04-29T22:18:46.717Z,99838.00
2023-04-29T22:21:14.562Z,99845.00
2023-04-29T22:23:42.866Z,99840.00
2023-04-29T22:26:10.784Z,99835.00
2023-04-29T22:28:39.963Z,99835.00
2023-04-29T22:31:07.896Z,99840.00
2023-04-29T22:33:35.879Z,99852.00
2023-04-29T22:36:05.195Z,99842.00
2023-04-29T22:38:33.072Z,99850.00
2023-04-29T22:41:01.669Z,99856.00
2023-04-29T22:43:29.706Z,99853.00
2023-04-29T22:45:59.053Z,99858.00
2023-04-29T22:48:27.809Z,99856.00
2023-04-29T22:50:59.099Z,99861.00
2023-04-29T22:53:27.030Z,99856.00
2023-04-29T22:55:57.572Z,99862.00
2023-04-29T22:58:26.849Z,99860.00
2023-04-29T23:00:58.469Z,99856.00
2023-04-29T23:03:27.641Z,99863.00
2023-04-29T23:05:59.404Z,99856.00
2023-04-29T23:08:27.593Z,99855.00
2023-04-29T23:10:55.552Z,99865.00
2023-04-29T23:13:23.713Z,99864.00
2023-04-29T23:15:52.101Z,99867.00
2023-04-29T23:18:21.323Z,99862.00
2023-04-29T23:20:49.494Z,99867.00
2023-04-29T23:23:17.332Z,99873.00
2023-04-29T23:25:46.200Z,99874.00
2023-04-29T23:28:14.309Z,99869.00
2023-04-29T23:30:42.187Z,99877.00
2023-04-29T23:33:10.164Z,99884.00
2023-04-29T23:35:39.302Z,99881.00
2023-04-29T23:38:07.192Z,99886.00
2023-04-29T23:40:35.104Z,99877.00
2023-04-29T23:43:02.922Z,99877.00
2023-04-29T23:45:30.827Z,99874.00
2023-04-29T23:47:58.701Z,99874.00
2023-04-29T23:50:26.646Z,99876.00
2023-04-29T23:52:55.848Z,99882.00
2023-04-29T23:55:24.009Z,99878.00
2023-04-29T23:57:51.934Z,99886.00
